Time;durP1;ratioP1;P1;durP2;ratioP2;P2;SDS_P1;SDS_P2;PMS_P1;PMS_P2;Temp;Humidity;BMP_temperature;BMP_pressure;BME280_temperature;BME280_humidity;BME280_pressure;Samples;Min_cycle;Max_cycle;Signal;HPM_P1;HPM_P2
2022/03/05 00:00:30;;;;;;;1999.90;999.90;;;8.70;68.40;;;;;;4992057;28;20030;-86
2022/03/05 00:02:57;;;;;;;1999.90;999.90;;;8.70;68.40;;;;;;5023563;28;20040;-84
2022/03/05 00:05:23;;;;;;;1999.90;999.90;;;8.60;68.50;;;;;;4991717;28;20026;-86
2022/03/05 00:07:49;;;;;;;1999.90;999.90;;;8.60;68.60;;;;;;5005378;28;20379;-85
2022/03/05 00:10:16;;;;;;;1999.90;999.90;;;8.60;68.60;;;;;;5012144;28;20529;-86
2022/03/05 00:12:42;;;;;;;1999.90;999.90;;;8.50;68.60;;;;;;5009072;28;20030;-84
2022/03/05 00:15:08;;;;;;;1999.90;999.90;;;8.50;68.70;;;;;;4990170;28;20408;-86
2022/03/05 00:17:35;;;;;;;1999.90;999.90;;;8.50;68.80;;;;;;5009145;28;20022;-85
2022/03/05 00:20:01;;;;;;;1999.90;999.90;;;8.40;68.70;;;;;;5008918;28;20030;-86
2022/03/05 00:22:27;;;;;;;1999.90;999.90;;;8.40;68.80;;;;;;5045438;28;20026;-84
2022/03/05 00:24:53;;;;;;;1999.90;999.90;;;8.40;68.80;;;;;;5012601;28;20041;-85
2022/03/05 00:27:19;;;;;;;1999.90;999.90;;;8.40;68.90;;;;;;5006745;28;20068;-84
2022/03/05 00:29:45;;;;;;;1999.90;999.90;;;8.30;68.90;;;;;;5028743;28;20046;-85
2022/03/05 00:32:11;;;;;;;1999.90;999.90;;;8.30;68.90;;;;;;5012013;28;20038;-85
2022/03/05 00:34:37;;;;;;;1999.90;999.90;;;8.30;69.00;;;;;;5014386;28;20493;-85
2022/03/05 00:37:05;;;;;;;1999.90;999.90;;;8.30;69.00;;;;;;5014347;28;20037;-85
2022/03/05 00:39:31;;;;;;;1999.90;999.90;;;8.20;69.00;;;;;;5015038;28;20029;-85
2022/03/05 00:41:58;;;;;;;1999.90;999.90;;;8.20;69.10;;;;;;4995260;28;20037;-84
2022/03/05 00:44:24;;;;;;;1999.90;999.90;;;8.20;69.10;;;;;;5029241;28;20049;-85
2022/03/05 00:46:50;;;;;;;1999.90;999.90;;;8.10;69.20;;;;;;4994432;28;20038;-86
2022/03/05 00:49:16;;;;;;;1999.90;999.90;;;8.10;69.20;;;;;;5014013;28;20034;-86
2022/03/05 00:51:42;;;;;;;1999.90;999.90;;;8.10;69.20;;;;;;5013017;28;20037;-85
2022/03/05 00:54:08;;;;;;;1999.90;999.90;;;8.10;69.20;;;;;;5012140;28;20042;-85
2022/03/05 00:56:34;;;;;;;1999.90;999.90;;;8.00;69.20;;;;;;5010818;28;20041;-85
2022/03/05 00:59:01;;;;;;;1999.90;999.90;;;8.00;69.30;;;;;;5012926;28;20407;-85
2022/03/05 01:01:27;;;;;;;1999.90;999.90;;;8.00;69.40;;;;;;5043877;28;20037;-85
2022/03/05 01:03:53;;;;;;;1999.90;999.90;;;8.00;69.40;;;;;;5029409;28;20041;-85
2022/03/05 01:06:19;;;;;;;1999.90;999.90;;;7.90;69.40;;;;;;4993509;28;20041;-85
2022/03/05 01:08:45;;;;;;;1999.90;999.90;;;7.90;69.50;;;;;;4994353;28;20037;-85
2022/03/05 01:11:15;;;;;;;1999.90;999.90;;;7.90;69.50;;;;;;5011558;28;20376;-85
2022/03/05 01:13:42;;;;;;;1999.90;999.90;;;7.90;69.50;;;;;;5012681;28;20038;-85
2022/03/05 01:16:09;;;;;;;1999.90;999.90;;;7.90;69.50;;;;;;5014199;28;20061;-86
2022/03/05 01:18:35;;;;;;;1999.90;999.90;;;7.90;69.60;;;;;;5027024;28;20037;-85
2022/03/05 01:21:02;;;;;;;1999.90;999.90;;;7.80;69.60;;;;;;4993348;28;20038;-85
2022/03/05 01:23:28;;;;;;;1999.90;999.90;;;7.80;69.50;;;;;;5045352;28;20061;-84
2022/03/05 01:25:54;;;;;;;1999.90;999.90;;;7.80;69.50;;;;;;5011147;28;20041;-85
2022/03/05 01:28:21;;;;;;;1999.90;999.90;;;7.80;69.60;;;;;;5011537;28;20057;-85
2022/03/05 01:30:47;;;;;;;1999.90;999.90;;;7.70;69.50;;;;;;5027309;28;20034;-85
2022/03/05 01:33:17;;;;;;;1999.90;999.90;;;7.70;69.50;;;;;;5044068;28;20034;-85
2022/03/05 01:35:44;;;;;;;1999.90;999.90;;;7.70;69.60;;;;;;5005360;28;20046;-85
2022/03/05 01:38:10;;;;;;;1999.90;999.90;;;7.70;69.70;;;;;;5022674;28;20034;-84
2022/03/05 01:40:36;;;;;;;1999.90;999.90;;;7.70;69.70;;;;;;5012643;28;20053;-85
2022/03/05 01:43:03;;;;;;;1999.90;999.90;;;7.70;69.70;;;;;;5012520;28;20034;-85
2022/03/05 01:45:30;;;;;;;1999.90;999.90;;;7.60;69.70;;;;;;5025901;28;20041;-85
2022/03/05 01:47:56;;;;;;;1999.90;999.90;;;7.60;69.80;;;;;;5022691;28;20045;-84
2022/03/05 01:50:22;;;;;;;1999.90;999.90;;;7.60;69.80;;;;;;5032965;28;20021;-85
2022/03/05 01:52:48;;;;;;;1999.90;999.90;;;7.60;69.90;;;;;;5002616;28;20030;-85
2022/03/05 01:55:15;;;;;;;1999.90;999.90;;;7.50;70.30;;;;;;5045422;28;20475;-85
2022/03/05 01:57:41;;;;;;;1999.90;999.90;;;7.50;69.90;;;;;;5010918;28;20033;-86
2022/03/05 02:00:09;;;;;;;1999.90;999.90;;;7.50;70.00;;;;;;5044844;28;20041;-84
2022/03/05 02:02:35;;;;;;;1999.90;999.90;;;7.40;69.90;;;;;;5009645;28;20422;-85
2022/03/05 02:05:01;;;;;;;1999.90;999.90;;;7.50;70.00;;;;;;5009655;28;20042;-85
2022/03/05 02:07:27;;;;;;;21.40;20.35;;;7.40;70.00;;;;;;5036138;28;20037;-85
2022/03/05 02:09:53;;;;;;;21.30;20.30;;;7.40;70.00;;;;;;5037784;28;20040;-86
2022/03/05 02:12:23;;;;;;;22.23;20.92;;;7.40;70.00;;;;;;5019654;28;20022;-84
2022/03/05 02:14:49;;;;;;;20.35;19.45;;;7.40;70.10;;;;;;5043815;28;20560;-85
2022/03/05 02:17:15;;;;;;;19.92;19.02;;;7.30;70.10;;;;;;5019948;28;20038;-86
2022/03/05 02:19:41;;;;;;;21.05;20.05;;;7.40;70.20;;;;;;5069579;28;20017;-85
2022/03/05 02:22:10;;;;;;;21.45;20.35;;;7.40;70.20;;;;;;5038714;28;20034;-85
2022/03/05 02:24:38;;;;;;;20.83;19.73;;;7.30;70.10;;;;;;5011380;28;20044;-85
2022/03/05 02:27:04;;;;;;;21.55;20.35;;;7.30;70.20;;;;;;5013275;28;20025;-85
2022/03/05 02:29:31;;;;;;;20.88;19.88;;;7.30;70.20;;;;;;5034079;28;20034;-85
2022/03/05 02:31:57;;;;;;;19.92;19.02;;;7.30;70.30;;;;;;5019517;28;20048;-86
2022/03/05 02:34:24;;;;;;;21.10;20.10;;;7.30;70.30;;;;;;5016955;28;20030;-85
2022/03/05 02:36:50;;;;;;;20.42;19.50;;;7.30;70.30;;;;;;5010597;28;20033;-84
2022/03/05 02:39:17;;;;;;;20.05;19.05;;;7.20;70.30;;;;;;5026948;28;20399;-85
2022/03/05 02:41:43;;;;;;;20.40;19.50;;;7.20;70.30;;;;;;5008381;28;20034;-85
2022/03/05 02:44:10;;;;;;;20.75;19.77;;;7.20;70.30;;;;;;5027124;28;20040;-85
2022/03/05 02:46:36;;;;;;;20.20;19.30;;;7.20;70.40;;;;;;5035413;28;20033;-85
2022/03/05 02:49:03;;;;;;;19.80;18.90;;;7.20;70.40;;;;;;5056585;28;20052;-84
2022/03/05 02:51:32;;;;;;;21.35;20.25;;;7.20;70.40;;;;;;5042991;28;20033;-85
2022/03/05 02:53:58;;;;;;;21.92;20.92;;;7.10;70.40;;;;;;5028175;28;20038;-84
2022/03/05 02:56:24;;;;;;;20.15;19.25;;;7.10;70.40;;;;;;5014750;28;20046;-84
2022/03/05 02:58:50;;;;;;;20.88;19.88;;;7.10;70.40;;;;;;5027896;28;20030;-86
2022/03/05 03:01:16;;;;;;;20.90;19.90;;;7.10;70.50;;;;;;5029441;28;20045;-85
2022/03/05 03:03:42;;;;;;;20.63;19.63;;;7.00;70.50;;;;;;5008460;28;20026;-84
2022/03/05 03:06:08;;;;;;;21.73;20.63;;;7.00;71.40;;;;;;5007567;28;20467;-86
2022/03/05 03:08:35;;;;;;;19.30;18.40;;;7.00;70.60;;;;;;5003472;28;20034;-86
2022/03/05 03:11:01;;;;;;;20.88;19.88;;;7.00;70.60;;;;;;5009266;28;20042;-85
2022/03/05 03:13:27;;;;;;;20.13;19.23;;;7.00;70.70;;;;;;5012205;28;20045;-85
2022/03/05 03:15:53;;;;;;;23.42;21.77;;;6.90;70.60;;;;;;5009651;28;20050;-86
2022/03/05 03:18:19;;;;;;;20.92;19.92;;;6.90;70.70;;;;;;4988983;28;20034;-83
2022/03/05 03:20:45;;;;;;;21.15;20.15;;;6.90;70.70;;;;;;5008421;28;20034;-86
2022/03/05 03:23:12;;;;;;;21.42;20.33;;;6.90;70.80;;;;;;5001002;28;20053;-84
2022/03/05 03:25:39;;;;;;;22.30;21.20;;;6.90;70.80;;;;;;4993081;28;20041;-85
2022/03/05 03:28:08;;;;;;;22.83;21.40;;;6.90;70.80;;;;;;5009365;28;20034;-85
2022/03/05 03:30:34;;;;;;;20.60;19.63;;;6.80;70.70;;;;;;4981559;28;20056;-85
2022/03/05 03:33:00;;;;;;;21.55;20.45;;;6.80;70.80;;;;;;5022744;28;20041;-85
2022/03/05 03:35:27;;;;;;;19.90;18.90;;;6.80;70.90;;;;;;5008600;28;20038;-86
2022/03/05 03:37:53;;;;;;;20.00;19.10;;;6.80;71.70;;;;;;5041999;28;20042;-87
2022/03/05 03:40:19;;;;;;;20.65;19.65;;;6.80;70.90;;;;;;5011284;28;20483;-85
2022/03/05 03:42:47;;;;;;;21.30;19.63;;;6.80;71.00;;;;;;5011284;28;20061;-84
2022/03/05 03:45:14;;;;;;;19.37;18.47;;;6.70;71.00;;;;;;5009756;28;20053;-85
2022/03/05 03:47:41;;;;;;;20.30;19.30;;;6.70;71.00;;;;;;4992554;28;20037;-84
2022/03/05 03:50:07;;;;;;;20.30;19.30;;;6.70;71.10;;;;;;5007188;28;20394;-86
2022/03/05 03:52:33;;;;;;;20.30;19.30;;;6.70;71.10;;;;;;5025551;28;20041;-85
2022/03/05 03:55:00;;;;;;;20.25;19.35;;;6.70;71.10;;;;;;5027683;28;20498;-85
2022/03/05 03:57:26;;;;;;;19.13;18.23;;;6.60;71.10;;;;;;5044253;28;20118;-86
2022/03/05 03:59:52;;;;;;;20.10;19.10;;;6.60;71.10;;;;;;5009251;28;20046;-85
2022/03/05 04:02:19;;;;;;;20.50;19.42;;;6.60;71.10;;;;;;5009898;28;20398;-86
2022/03/05 04:04:46;;;;;;;19.40;18.50;;;6.60;71.20;;;;;;5011669;28;20268;-85
2022/03/05 04:09:57;;;;;;;18.93;18.03;;;6.60;71.30;;;;;;5011813;28;20049;-85
2022/03/05 04:12:23;;;;;;;19.03;18.03;;;6.60;71.30;;;;;;5043058;28;20030;-84
2022/03/05 04:14:50;;;;;;;19.48;18.58;;;6.60;71.20;;;;;;4995016;28;20037;-84
2022/03/05 04:17:16;;;;;;;18.90;18.00;;;6.50;71.20;;;;;;5005103;28;20068;-84
2022/03/05 04:19:42;;;;;;;20.17;19.07;;;6.50;71.20;;;;;;5040229;28;20372;-85
2022/03/05 04:22:09;;;;;;;19.23;18.33;;;6.50;71.30;;;;;;5010327;28;20042;-85
2022/03/05 04:24:35;;;;;;;19.80;18.90;;;6.50;71.40;;;;;;5006012;28;20035;-85
2022/03/05 04:27:01;;;;;;;18.03;17.23;;;6.50;72.20;;;;;;4984275;28;20392;-85
2022/03/05 04:29:27;;;;;;;19.77;18.83;;;6.40;71.30;;;;;;5008596;28;20022;-85
2022/03/05 04:31:53;;;;;;;18.30;17.40;;;6.40;71.30;;;;;;5010403;28;20056;-85
2022/03/05 04:34:19;;;;;;;18.43;17.60;;;6.40;71.40;;;;;;4993748;28;20042;-83
2022/03/05 04:36:45;;;;;;;20.03;19.13;;;6.40;71.50;;;;;;5010085;28;20046;-85
2022/03/05 04:39:12;;;;;;;18.53;17.67;;;6.40;71.50;;;;;;5008824;28;20026;-85
2022/03/05 04:41:38;;;;;;;19.60;18.70;;;6.40;71.50;;;;;;5010193;28;20045;-85
2022/03/05 04:44:04;;;;;;;19.27;18.33;;;6.30;71.50;;;;;;5010319;28;20022;-85
2022/03/05 04:46:30;;;;;;;19.67;18.77;;;6.30;71.50;;;;;;5007568;28;20038;-85
2022/03/05 04:48:56;;;;;;;20.30;19.30;;;6.30;71.50;;;;;;5008371;28;20038;-85
2022/03/05 04:51:23;;;;;;;18.33;17.53;;;6.20;71.50;;;;;;5009025;28;20053;-84
2022/03/05 04:53:49;;;;;;;20.27;19.30;;;6.30;71.60;;;;;;5011157;28;20030;-85
2022/03/05 04:56:15;;;;;;;19.43;18.53;;;6.20;71.60;;;;;;5009498;28;20053;-85
2022/03/05 04:58:41;;;;;;;19.67;18.77;;;6.20;71.60;;;;;;5024226;28;20387;-84
2022/03/05 05:01:08;;;;;;;19.10;18.20;;;6.20;71.60;;;;;;5009385;28;20042;-84
2022/03/05 05:03:34;;;;;;;18.37;17.50;;;6.20;71.60;;;;;;5044438;28;20026;-86
2022/03/05 05:06:00;;;;;;;18.92;18.02;;;6.10;71.50;;;;;;5013921;28;20033;-85
2022/03/05 05:08:26;;;;;;;19.60;18.70;;;6.10;71.60;;;;;;5010821;28;20026;-85
2022/03/05 05:10:52;;;;;;;18.90;18.00;;;6.10;71.60;;;;;;5010707;28;20124;-84
2022/03/05 05:13:18;;;;;;;18.10;17.30;;;6.10;71.70;;;;;;5014699;28;20042;-84
2022/03/05 05:15:48;;;;;;;19.83;18.93;;;6.10;71.70;;;;;;5012395;28;20054;-85
2022/03/05 05:18:14;;;;;;;20.70;19.60;;;6.00;71.60;;;;;;5009148;28;20042;-85
2022/03/05 05:20:40;;;;;;;19.87;18.87;;;6.10;71.70;;;;;;4994976;28;20386;-86
2022/03/05 05:23:06;;;;;;;19.70;18.80;;;6.00;71.70;;;;;;5010719;28;20034;-85
2022/03/05 05:25:32;;;;;;;19.67;18.77;;;6.00;71.70;;;;;;5011973;28;20045;-85
2022/03/05 05:27:58;;;;;;;19.37;18.47;;;6.00;71.70;;;;;;5014810;28;20034;-84
2022/03/05 05:30:24;;;;;;;18.58;17.73;;;6.00;71.70;;;;;;4991433;28;20026;-84
2022/03/05 05:32:50;;;;;;;19.33;18.43;;;6.00;71.80;;;;;;5046332;28;20025;-85
2022/03/05 05:35:16;;;;;;;19.60;18.70;;;6.00;71.80;;;;;;5010923;28;20037;-85
2022/03/05 05:37:42;;;;;;;18.03;17.23;;;5.90;71.80;;;;;;5045692;28;20045;-84
2022/03/05 05:40:09;;;;;;;19.20;18.20;;;6.00;71.90;;;;;;5013653;28;20502;-85
2022/03/05 05:42:35;;;;;;;18.23;17.43;;;5.90;71.80;;;;;;5017883;28;20507;-84
2022/03/05 05:45:01;;;;;;;18.80;17.90;;;5.90;71.90;;;;;;5011310;28;20034;-87
2022/03/05 05:47:27;;;;;;;18.80;17.90;;;5.90;71.90;;;;;;5043988;28;20522;-87
2022/03/05 05:49:53;;;;;;;18.57;17.70;;;5.90;71.90;;;;;;5013623;28;20025;-87
2022/03/05 05:52:19;;;;;;;19.17;18.27;;;5.90;71.90;;;;;;5028940;28;20042;-84
2022/03/05 05:54:46;;;;;;;18.97;18.07;;;5.90;71.90;;;;;;5012180;28;20510;-87
2022/03/05 05:57:12;;;;;;;18.67;17.77;;;5.90;71.80;;;;;;5013357;28;20049;-87
2022/03/05 05:59:38;;;;;;;19.27;18.27;;;5.90;71.80;;;;;;5011016;28;20372;-87
2022/03/05 06:02:04;;;;;;;19.37;18.47;;;5.90;71.90;;;;;;4978790;28;20052;-86
2022/03/05 06:04:30;;;;;;;18.63;17.47;;;5.80;71.90;;;;;;5011925;28;20038;-86
2022/03/05 06:06:56;;;;;;;18.93;18.03;;;5.80;71.90;;;;;;5027203;28;20436;-86
2022/03/05 06:09:23;;;;;;;17.40;16.60;;;5.80;71.90;;;;;;5010040;28;20037;-87
2022/03/05 06:11:49;;;;;;;18.80;17.90;;;5.80;71.90;;;;;;5024531;28;20025;-88
2022/03/05 06:14:15;;;;;;;17.43;16.63;;;5.80;72.00;;;;;;4993204;28;20040;-87
2022/03/05 06:16:42;;;;;;;18.17;17.37;;;5.80;72.00;;;;;;5043619;28;20045;-85
2022/03/05 06:19:08;;;;;;;18.80;17.90;;;5.80;72.10;;;;;;4993086;28;20037;-86
2022/03/05 06:21:34;;;;;;;18.67;17.77;;;5.80;72.00;;;;;;5012144;28;20036;-86
2022/03/05 06:24:00;;;;;;;19.47;18.47;;;5.90;72.00;;;;;;5011635;28;20049;-86
2022/03/05 06:26:31;;;;;;;18.50;17.60;;;5.90;71.90;;;;;;5011861;28;20038;-87
2022/03/05 06:28:58;;;;;;;19.10;18.20;;;5.90;71.90;;;;;;5024746;28;20038;-86
2022/03/05 06:31:24;;;;;;;19.50;18.60;;;5.80;71.90;;;;;;5011426;28;20042;-87
2022/03/05 06:33:50;;;;;;;18.97;18.07;;;5.70;72.00;;;;;;5011553;28;20030;-85
2022/03/05 06:36:16;;;;;;;18.17;17.37;;;5.70;72.10;;;;;;5009961;28;20046;-85
2022/03/05 06:38:42;;;;;;;17.73;16.93;;;5.70;72.20;;;;;;5011524;28;20399;-87
2022/03/05 06:41:08;;;;;;;17.70;16.90;;;5.70;72.20;;;;;;5008661;28;20034;-87
2022/03/05 06:43:34;;;;;;;18.60;17.43;;;5.60;72.20;;;;;;4994663;28;20049;-86
2022/03/05 06:46:01;;;;;;;18.03;17.23;;;5.60;72.30;;;;;;5011743;28;20042;-86
2022/03/05 06:48:27;;;;;;;18.00;17.10;;;5.60;72.30;;;;;;5011465;28;20030;-87
2022/03/05 06:50:53;;;;;;;17.80;17.00;;;5.60;72.30;;;;;;5009762;28;20042;-86
2022/03/05 06:53:19;;;;;;;18.30;17.50;;;5.60;72.40;;;;;;5010936;28;20042;-88
2022/03/05 06:55:45;;;;;;;18.20;17.40;;;5.50;72.20;;;;;;5009138;28;20038;-86
2022/03/05 06:58:11;;;;;;;17.97;17.13;;;5.50;72.30;;;;;;5011830;28;20375;-86
2022/03/05 07:00:37;;;;;;;17.50;16.70;;;5.50;72.30;;;;;;5008737;28;20041;-84
2022/03/05 07:03:03;;;;;;;18.23;17.43;;;5.50;72.30;;;;;;5009572;28;20137;-83
2022/03/05 07:05:29;;;;;;;17.63;16.83;;;5.60;72.60;;;;;;5008393;28;20033;-86
2022/03/05 07:07:56;;;;;;;17.50;16.60;;;5.80;72.30;;;;;;5007824;28;20034;-86
2022/03/05 07:10:22;;;;;;;18.33;17.43;;;5.80;71.90;;;;;;4994568;28;20034;-85
2022/03/05 07:12:48;;;;;;;18.90;18.00;;;5.90;71.90;;;;;;5041222;28;20038;-86
2022/03/05 07:15:14;;;;;;;18.33;17.47;;;5.80;71.80;;;;;;4991218;28;20494;-86
2022/03/05 07:17:50;;;;;;;17.67;16.80;;;5.80;71.90;;;;;;5008079;28;20100;-86
2022/03/05 07:20:16;;;;;;;18.00;17.20;;;5.90;72.00;;;;;;5021228;28;20018;-84
2022/03/05 07:22:42;;;;;;;19.67;18.67;;;5.80;71.90;;;;;;5007742;28;20033;-82
2022/03/05 07:25:09;;;;;;;17.60;16.80;;;5.80;72.00;;;;;;5013020;28;20046;-81
2022/03/05 07:27:35;;;;;;;18.40;17.60;;;5.80;72.00;;;;;;5007917;28;20030;-83
2022/03/05 07:30:02;;;;;;;19.30;18.40;;;5.90;72.00;;;;;;5007567;28;20026;-82
2022/03/05 07:32:28;;;;;;;20.07;18.73;;;5.90;72.00;;;;;;5011108;28;20155;-83
2022/03/05 07:34:54;;;;;;;18.00;17.13;;;6.00;71.90;;;;;;5009158;28;20022;-83
2022/03/05 07:37:20;;;;;;;18.63;17.73;;;6.00;71.80;;;;;;5008042;28;20399;-82
2022/03/05 07:39:46;;;;;;;19.17;18.27;;;6.10;71.80;;;;;;5006763;28;20033;-82
2022/03/05 07:42:12;;;;;;;18.50;17.60;;;6.20;71.70;;;;;;5006012;28;20415;-83
2022/03/05 07:44:38;;;;;;;17.47;16.67;;;6.40;71.50;;;;;;5043661;28;20387;-83
2022/03/05 07:47:05;;;;;;;18.03;17.23;;;6.70;71.00;;;;;;4992850;28;20033;-82
2022/03/05 07:49:31;;;;;;;17.93;17.13;;;7.20;70.20;;;;;;5042881;28;20026;-89
2022/03/05 07:51:57;;;;;;;19.10;18.20;;;7.30;69.50;;;;;;5006718;28;20511;-85
2022/03/05 07:54:24;;;;;;;19.00;18.10;;;7.30;70.10;;;;;;5011555;28;20034;-84
2022/03/05 07:56:50;;;;;;;19.63;18.73;;;7.30;69.60;;;;;;5007243;28;20034;-85
2022/03/05 07:59:16;;;;;;;19.30;18.40;;;7.30;70.00;;;;;;5011724;28;20459;-85
2022/03/05 08:01:42;;;;;;;20.25;19.25;;;7.20;70.20;;;;;;5010884;28;20041;-85
2022/03/05 08:04:09;;;;;;;20.30;19.30;;;7.20;70.50;;;;;;5012146;28;20033;-84
2022/03/05 08:06:35;;;;;;;19.65;18.75;;;7.20;70.70;;;;;;5007307;28;20406;-85
2022/03/05 08:09:01;;;;;;;19.88;18.95;;;7.20;70.80;;;;;;5011325;28;20038;-85
2022/03/05 08:11:27;;;;;;;19.70;18.80;;;7.20;70.90;;;;;;5007588;28;20479;-84
2022/03/05 08:13:53;;;;;;;19.80;18.90;;;7.20;70.90;;;;;;5010491;28;20048;-84
2022/03/05 08:16:19;;;;;;;19.67;18.77;;;7.30;71.00;;;;;;5010848;28;20030;-84
2022/03/05 08:18:45;;;;;;;19.40;18.50;;;7.40;71.00;;;;;;5011679;28;20049;-85
2022/03/05 08:21:11;;;;;;;19.30;18.40;;;7.40;70.90;;;;;;5011192;28;20038;-85
2022/03/05 08:23:37;;;;;;;19.10;18.20;;;7.50;70.90;;;;;;5007560;28;20050;-85
2022/03/05 08:26:05;;;;;;;19.50;18.60;;;7.60;70.90;;;;;;5007553;28;20396;-86
2022/03/05 08:28:31;;;;;;;19.67;18.77;;;7.60;70.90;;;;;;5026037;28;20468;-85
2022/03/05 08:30:57;;;;;;;19.60;18.70;;;7.70;70.90;;;;;;5006050;28;20045;-85
2022/03/05 08:33:23;;;;;;;18.98;18.08;;;7.70;70.90;;;;;;5010465;28;20041;-84
2022/03/05 08:35:50;;;;;;;19.52;18.63;;;7.80;71.00;;;;;;5011057;28;20483;-84
2022/03/05 08:38:16;;;;;;;19.42;18.42;;;7.90;70.90;;;;;;5011092;28;20040;-84
2022/03/05 08:40:42;;;;;;;19.75;18.85;;;7.90;70.90;;;;;;5015154;28;20368;-82
2022/03/05 08:43:08;;;;;;;20.90;19.90;;;7.90;70.80;;;;;;5015651;28;20045;-83
2022/03/05 08:45:34;;;;;;;21.10;20.10;;;8.00;70.90;;;;;;5009552;28;20057;-89
2022/03/05 08:48:00;;;;;;;21.40;20.40;;;8.00;70.90;;;;;;4996576;28;20038;-84
2022/03/05 08:50:26;;;;;;;21.45;20.35;;;8.10;71.00;;;;;;5014357;28;20037;-85
2022/03/05 08:52:52;;;;;;;21.20;20.20;;;8.10;71.00;;;;;;5029072;28;20418;-84
2022/03/05 08:55:19;;;;;;;21.88;20.88;;;8.10;71.10;;;;;;5044902;28;20033;-82
2022/03/05 08:57:45;;;;;;;20.67;19.67;;;8.10;71.20;;;;;;5012838;28;20048;-82
2022/03/05 09:00:12;;;;;;;1999.90;999.90;;;8.20;71.10;;;;;;5012596;28;20026;-87
2022/03/05 09:02:38;;;;;;;1999.90;999.90;;;8.20;71.90;;;;;;5022120;28;20026;-83
2022/03/05 09:05:04;;;;;;;1999.90;999.90;;;8.20;71.10;;;;;;5012741;28;20034;-85
2022/03/05 09:07:31;;;;;;;1999.90;999.90;;;8.30;71.20;;;;;;5016138;28;20033;-85
2022/03/05 09:09:57;;;;;;;1999.90;999.90;;;8.30;71.10;;;;;;5012638;28;20022;-84
2022/03/05 09:12:23;;;;;;;1999.90;999.90;;;8.30;71.10;;;;;;4994249;28;20360;-85
2022/03/05 09:14:49;;;;;;;1999.90;999.90;;;8.40;71.20;;;;;;5016335;28;20037;-91
2022/03/05 09:17:16;;;;;;;1999.90;999.90;;;8.40;71.10;;;;;;5010445;28;20043;-91
2022/03/05 09:19:42;;;;;;;1999.90;999.90;;;8.50;71.10;;;;;;5013527;28;20033;-91
2022/03/05 09:22:10;;;;;;;1999.90;999.90;;;8.70;71.10;;;;;;5012376;28;20052;-89
2022/03/05 09:24:37;;;;;;;1999.90;999.90;;;8.80;70.80;;;;;;5010700;28;20038;-89
2022/03/05 09:27:04;;;;;;;1999.90;999.90;;;8.90;70.60;;;;;;5009563;28;20064;-88
2022/03/05 09:29:30;;;;;;;1999.90;999.90;;;9.00;70.50;;;;;;4994700;28;20038;-88
2022/03/05 09:31:56;;;;;;;1999.90;999.90;;;9.00;70.40;;;;;;5023887;28;20380;-87
2022/03/05 09:34:22;;;;;;;1999.90;999.90;;;9.10;70.40;;;;;;5013955;28;20025;-87
2022/03/05 09:36:48;;;;;;;1999.90;999.90;;;9.20;70.40;;;;;;4996273;28;20042;-86
2022/03/05 09:39:14;;;;;;;1999.90;999.90;;;9.30;70.20;;;;;;5013747;28;20057;-88
2022/03/05 09:41:41;;;;;;;1999.90;999.90;;;9.40;70.00;;;;;;5012378;28;20376;-87
2022/03/05 09:44:07;;;;;;;1999.90;999.90;;;9.50;69.80;;;;;;5012471;28;20046;-88
2022/03/05 09:46:34;;;;;;;1999.90;999.90;;;9.70;69.80;;;;;;5012755;28;20038;-89
2022/03/05 09:49:01;;;;;;;1999.90;999.90;;;9.90;69.50;;;;;;5011202;28;20034;-90
2022/03/05 09:51:27;;;;;;;1999.90;999.90;;;10.10;69.20;;;;;;5054096;28;20117;-93
2022/03/05 09:53:54;;;;;;;1999.90;999.90;;;10.30;68.90;;;;;;5049426;23;20055;-93
2022/03/05 09:56:20;;;;;;;1999.90;999.90;;;10.60;68.70;;;;;;5035934;23;20047;-93
2022/03/05 09:58:49;;;;;;;1999.90;999.90;;;10.80;68.40;;;;;;4973117;28;20046;-94
2022/03/05 10:01:15;;;;;;;1999.90;999.90;;;10.90;68.10;;;;;;5004092;28;20033;-91
2022/03/05 10:03:43;;;;;;;1999.90;999.90;;;11.10;67.90;;;;;;5305486;23;21003;-92
2022/03/05 10:08:55;;;;;;;1999.90;999.90;;;11.30;67.70;;;;;;5472544;23;20052;-91
2022/03/05 10:11:22;;;;;;;1999.90;999.90;;;11.40;67.60;;;;;;5008763;28;20041;-93
2022/03/05 10:13:48;;;;;;;1999.90;999.90;;;11.40;67.50;;;;;;5013242;28;20025;-92
2022/03/05 10:16:33;;;;;;;1999.90;999.90;;;11.50;67.40;;;;;;5026797;28;20026;-93
2022/03/05 10:19:21;;;;;;;1999.90;999.90;;;11.60;67.40;;;;;;4991624;28;20042;-88
2022/03/05 10:22:03;;;;;;;1999.90;999.90;;;11.70;67.40;;;;;;5010717;28;20033;-90
2022/03/05 10:24:40;;;;;;;1999.90;999.90;;;11.90;67.30;;;;;;4989251;28;20041;-75
2022/03/05 10:27:07;;;;;;;1999.90;999.90;;;11.90;66.90;;;;;;5009476;28;20041;-76
2022/03/05 10:29:36;;;;;;;1999.90;999.90;;;12.00;66.80;;;;;;5011560;28;20037;-76
2022/03/05 10:32:06;;;;;;;1999.90;999.90;;;12.00;66.70;;;;;;4972460;28;20038;-89
2022/03/05 10:34:42;;;;;;;1999.90;999.90;;;12.20;66.70;;;;;;4989893;28;20419;-90
2022/03/05 10:37:08;;;;;;;1999.90;999.90;;;12.30;66.50;;;;;;4988335;28;20042;-91
2022/03/05 10:39:34;;;;;;;1999.90;999.90;;;12.50;66.20;;;;;;4970930;28;20034;-90
2022/03/05 10:42:00;;;;;;;1999.90;999.90;;;12.80;65.60;;;;;;4987161;28;20093;-89
2022/03/05 10:44:26;;;;;;;1999.90;999.90;;;12.80;65.20;;;;;;4975805;28;20411;-91
2022/03/05 10:47:00;;;;;;;1999.90;999.90;;;12.90;64.90;;;;;;4986821;28;20042;-90
2022/03/05 10:49:33;;;;;;;1999.90;999.90;;;13.00;64.60;;;;;;4992197;28;20037;-90
2022/03/05 10:52:00;;;;;;;1999.90;999.90;;;13.00;64.30;;;;;;4978892;28;20042;-89
2022/03/05 10:54:27;;;;;;;1999.90;999.90;;;13.10;63.90;;;;;;4990502;28;20030;-88
2022/03/05 10:57:15;;;;;;;1999.90;999.90;;;13.10;63.50;;;;;;4971559;28;20026;-90
2022/03/05 10:59:43;;;;;;;1999.90;999.90;;;13.20;63.40;;;;;;4986699;28;20033;-87
2022/03/05 11:02:10;;;;;;;1999.90;999.90;;;13.30;63.00;;;;;;4971823;28;20037;-91
2022/03/05 11:04:37;;;;;;;1999.90;999.90;;;13.50;63.00;;;;;;4992310;28;20041;-87
2022/03/05 11:07:03;;;;;;;1999.90;999.90;;;13.50;62.50;;;;;;4990358;28;20029;-88
2022/03/05 11:09:30;;;;;;;1999.90;999.90;;;13.50;62.50;;;;;;4986568;28;20057;-87
2022/03/05 11:11:58;;;;;;;1999.90;999.90;;;13.60;62.40;;;;;;4971676;28;20053;-86
2022/03/05 11:14:24;;;;;;;1999.90;999.90;;;13.70;62.40;;;;;;4967509;28;20473;-90
2022/03/05 11:16:50;;;;;;;1999.90;999.90;;;13.80;62.10;;;;;;4972514;28;20038;-90
2022/03/05 11:19:18;;;;;;;1999.90;999.90;;;13.90;62.10;;;;;;4970541;28;20402;-87
2022/03/05 11:21:44;;;;;;;1999.90;999.90;;;14.00;62.40;;;;;;4959376;28;20411;-87
2022/03/05 11:24:14;;;;;;;1999.90;999.90;;;14.00;61.30;;;;;;4973512;28;20027;-85
2022/03/05 11:26:41;;;;;;;1999.90;999.90;;;14.00;61.30;;;;;;4971916;28;20042;-87
2022/03/05 11:29:07;;;;;;;1999.90;999.90;;;13.90;61.10;;;;;;4990283;28;20042;-86
2022/03/05 11:31:34;;;;;;;1999.90;999.90;;;13.80;61.10;;;;;;4965021;28;20041;-91
2022/03/05 11:34:20;;;;;;;1999.90;999.90;;;13.70;61.10;;;;;;4991906;28;20820;-89
2022/03/05 11:36:47;;;;;;;1999.90;999.90;;;13.90;61.30;;;;;;4989319;28;20031;-93
2022/03/05 11:39:18;;;;;;;1999.90;999.90;;;13.80;60.40;;;;;;4994387;28;20053;-90
2022/03/05 11:41:59;;;;;;;1999.90;999.90;;;13.70;60.30;;;;;;4992011;23;20047;-90
2022/03/05 11:44:43;;;;;;;1999.90;999.90;;;13.60;60.60;;;;;;4971563;28;20034;-87
2022/03/05 11:47:19;;;;;;;1999.90;999.90;;;13.70;60.70;;;;;;4945172;28;20039;-85
2022/03/05 11:50:00;;;;;;;1999.90;999.90;;;13.80;60.50;;;;;;4970225;28;20423;-84
2022/03/05 11:52:38;;;;;;;1999.90;999.90;;;13.80;59.90;;;;;;4969228;28;20038;-85
2022/03/05 11:55:14;;;;;;;1999.90;999.90;;;13.60;60.00;;;;;;4971942;28;20039;-85
2022/03/05 11:58:06;;;;;;;1999.90;999.90;;;13.50;60.40;;;;;;4970009;28;20062;-83
2022/03/05 12:00:33;;;;;;;1999.90;999.90;;;13.60;60.50;;;;;;4973488;28;20400;-85
2022/03/05 12:03:00;;;;;;;1999.90;999.90;;;13.60;60.40;;;;;;4988945;28;20029;-84
2022/03/05 12:05:32;;;;;;;1999.90;999.90;;;13.60;60.00;;;;;;4986922;28;20034;-85
2022/03/05 12:07:59;;;;;;;1999.90;999.90;;;13.60;60.00;;;;;;4984188;28;20026;-90
2022/03/05 12:10:25;;;;;;;1999.90;999.90;;;13.60;60.10;;;;;;4975441;28;20510;-86
2022/03/05 12:12:53;;;;;;;1999.90;999.90;;;13.50;60.20;;;;;;4968124;28;20399;-84
2022/03/05 12:15:26;;;;;;;1999.90;999.90;;;13.50;60.10;;;;;;4967682;28;20515;-84
2022/03/05 12:17:52;;;;;;;1999.90;999.90;;;13.50;60.10;;;;;;4984173;28;20057;-85
2022/03/05 12:20:27;;;;;;;1999.90;999.90;;;13.50;60.10;;;;;;4965717;28;20229;-84
2022/03/05 12:22:58;;;;;;;1999.90;999.90;;;13.50;60.00;;;;;;4978928;28;20036;-84
2022/03/05 12:25:24;;;;;;;;;;;13.30;59.90;;;;;;4985993;28;20499;-83
2022/03/05 12:27:51;;;;;;;1999.90;999.90;;;13.20;60.20;;;;;;4976910;28;20302;-84